createdAt,value
2019-03-03T01:06:46.637Z,63.42
2019-03-03T01:11:53.963Z,62.76
2019-03-03T01:17:04.509Z,63.16
2019-03-03T01:22:11.869Z,62.90
2019-03-03T01:27:14.154Z,62.07
2019-03-03T02:35:37.948Z,62.52
2019-03-03T02:40:39.287Z,62.89
2019-03-03T02:45:40.887Z,62.80
2019-03-03T02:50:42.253Z,62.65
2019-03-03T02:55:43.604Z,62.53
2019-03-03T04:04:07.146Z,63.14
2019-03-03T04:09:10.375Z,63.00
2019-03-03T04:14:12.664Z,62.15
2019-03-03T04:19:13.970Z,63.07
2019-03-03T04:24:15.281Z,62.20
2019-03-03T04:29:17.495Z,63.18
2019-03-03T06:03:00.136Z,60.01
2019-03-03T06:08:01.397Z,60.07
2019-03-03T06:13:02.721Z,59.71
2019-03-03T06:18:04.065Z,59.87
2019-03-03T06:23:05.437Z,59.69
2019-03-03T06:28:06.781Z,59.38
2019-03-03T06:33:08.116Z,59.56
2019-03-03T06:38:09.491Z,59.14
2019-03-03T06:43:10.765Z,58.97
2019-03-03T06:48:12.124Z,58.23
2019-03-03T06:53:13.618Z,58.72
2019-03-03T06:58:14.964Z,58.04
2019-03-03T07:03:17.318Z,58.13
2019-03-03T07:08:19.381Z,58.32
2019-03-03T07:13:21.825Z,57.88
2019-03-03T07:18:23.392Z,57.20
2019-03-03T07:23:24.725Z,57.40
2019-03-03T07:28:31.565Z,56.86
2019-03-03T07:33:32.887Z,56.47
2019-03-03T07:38:34.367Z,56.07
2019-03-03T07:43:35.689Z,55.90
2019-03-03T07:48:37.012Z,54.87
2019-03-03T07:53:38.369Z,54.67
2019-03-03T07:58:39.801Z,54.12
2019-03-03T08:03:41.185Z,53.19
2019-03-03T08:08:42.539Z,53.32
2019-03-03T08:13:43.868Z,53.02
2019-03-03T08:18:45.347Z,52.51
2019-03-03T08:23:54.739Z,51.81
2019-03-03T08:28:56.196Z,52.66
2019-03-03T08:33:57.561Z,52.08
2019-03-03T08:38:58.920Z,51.03
2019-03-03T08:44:00.357Z,50.85
2019-03-03T08:49:04.717Z,50.93
2019-03-03T08:54:12.614Z,50.10
2019-03-03T08:59:19.804Z,49.87
2019-03-03T09:09:59.698Z,48.67
2019-03-03T09:15:01.076Z,48.11
2019-03-03T09:25:36.582Z,47.93
2019-03-03T09:30:38.900Z,46.67
2019-03-03T09:35:45.984Z,46.83
2019-03-03T09:40:48.292Z,45.84
2019-03-03T09:51:27.868Z,45.20
2019-03-03T09:56:33.996Z,44.63
2019-03-03T10:01:41.468Z,43.96
2019-03-03T10:12:18.228Z,42.92
2019-03-03T10:23:05.458Z,41.03
2019-03-03T10:33:41.417Z,40.29
2019-03-03T10:38:50.661Z,39.22
2019-03-03T10:43:55.877Z,38.60
2019-03-03T10:54:52.162Z,38.72
2019-03-03T11:00:00.433Z,38.62
2019-03-03T11:05:17.422Z,38.66
2019-03-03T11:10:21.616Z,38.14
2019-03-03T11:15:23.146Z,39.00
2019-03-03T11:20:25.545Z,39.03
2019-03-03T11:31:14.881Z,40.16
2019-03-03T11:36:22.445Z,40.58
2019-03-03T11:41:25.651Z,39.99
2019-03-03T11:46:27.045Z,41.58
2019-03-03T11:51:29.368Z,41.22
2019-03-03T11:56:30.802Z,41.65
2019-03-03T12:01:33.116Z,40.73
2019-03-03T12:12:03.943Z,40.92
2019-03-03T12:17:05.334Z,40.69
2019-03-03T12:22:11.695Z,40.12
2019-03-03T12:27:14.837Z,40.30
2019-03-03T12:32:18.045Z,40.42
2019-03-03T12:37:21.254Z,39.71
2019-03-03T12:42:27.556Z,39.05
2019-03-03T12:47:38.809Z,38.72
2019-03-03T12:52:46.516Z,38.54
2019-03-03T12:57:49.833Z,38.89
2019-03-03T13:02:51.182Z,38.48
2019-03-03T13:07:52.547Z,38.37
2019-03-03T13:12:55.688Z,40.37
2019-03-03T13:17:58.003Z,40.17
2019-03-03T13:23:15.743Z,38.80
2019-03-03T13:28:22.586Z,38.39
2019-03-03T13:33:27.075Z,37.55
2019-03-03T13:44:02.571Z,38.15
2019-03-03T13:49:03.908Z,37.57
2019-03-03T13:54:06.605Z,36.52
2019-03-03T13:59:06.775Z,37.47
2019-03-03T14:04:08.876Z,36.72
2019-03-03T14:09:11.929Z,36.21
2019-03-03T14:14:13.253Z,36.42
2019-03-03T14:19:14.613Z,36.45
2019-03-03T14:24:16.767Z,35.81
2019-03-03T14:29:18.240Z,36.78
2019-03-03T14:34:19.673Z,36.82
2019-03-03T14:39:21.069Z,36.90
2019-03-03T14:44:22.420Z,36.60
2019-03-03T14:49:23.827Z,36.63
2019-03-03T14:54:26.063Z,37.12
2019-03-03T14:59:27.503Z,36.71
2019-03-03T15:04:32.485Z,36.61
2019-03-03T15:09:34.141Z,36.72
2019-03-03T15:14:35.647Z,36.67
2019-03-03T15:19:37.056Z,37.01
2019-03-03T15:24:39.452Z,36.33
2019-03-03T15:29:40.943Z,35.62
2019-03-03T15:34:43.085Z,36.13
2019-03-03T15:39:44.442Z,35.87
2019-03-03T15:44:47.291Z,35.94
2019-03-03T15:49:48.771Z,35.81
2019-03-03T15:54:50.109Z,35.99
2019-03-03T15:59:51.485Z,35.65
2019-03-03T16:04:53.462Z,35.80
2019-03-03T16:09:55.276Z,35.67
2019-03-03T16:14:57.819Z,35.23
2019-03-03T16:19:59.364Z,35.20
2019-03-03T16:25:00.890Z,35.75
2019-03-03T16:30:02.263Z,36.02
2019-03-03T16:35:03.597Z,35.90
2019-03-03T16:40:10.808Z,36.46
2019-03-03T16:45:12.232Z,36.58
2019-03-03T16:50:16.141Z,36.70
2019-03-03T16:55:20.723Z,36.46
2019-03-03T17:00:26.795Z,36.94
2019-03-03T17:05:31.589Z,37.44
2019-03-03T17:10:41.210Z,37.07
2019-03-03T17:15:49.495Z,37.30
2019-03-03T17:20:54.815Z,37.08
2019-03-03T17:25:57.153Z,37.87
2019-03-03T17:31:01.893Z,37.53
2019-03-03T17:36:11.119Z,37.70
2019-03-03T17:41:18.685Z,37.30
2019-03-03T17:46:24.101Z,37.23
2019-03-03T17:51:28.960Z,37.33
2019-03-03T17:56:33.253Z,37.38
2019-03-03T18:01:44.676Z,37.47
2019-03-03T18:06:50.431Z,37.83
2019-03-03T18:11:51.736Z,38.28
2019-03-03T18:16:53.026Z,37.89
2019-03-03T18:21:54.488Z,38.13
2019-03-03T18:26:55.936Z,38.33
2019-03-03T18:31:58.083Z,38.16
2019-03-03T18:37:00.162Z,38.13
2019-03-03T18:42:02.780Z,38.79
2019-03-03T18:47:04.171Z,38.01
2019-03-03T18:52:05.509Z,37.86
2019-03-03T18:57:06.939Z,37.78
2019-03-03T19:02:08.381Z,37.67
2019-03-03T19:07:09.725Z,37.61
2019-03-03T19:12:11.206Z,37.57
2019-03-03T19:17:12.696Z,37.51
2019-03-03T19:22:14.294Z,37.59
2019-03-03T19:27:16.458Z,37.67
2019-03-03T19:32:17.947Z,37.40
2019-03-03T19:37:19.292Z,37.08
2019-03-03T19:42:20.673Z,37.23
2019-03-03T19:47:22.794Z,37.12
2019-03-03T19:52:24.161Z,36.83
2019-03-03T19:57:25.525Z,36.91
2019-03-03T20:02:26.893Z,37.19
2019-03-03T20:07:28.196Z,36.94
2019-03-03T20:12:29.642Z,36.86
2019-03-03T20:17:31.201Z,36.84
2019-03-03T20:22:32.781Z,36.95
2019-03-03T20:27:34.209Z,36.44
2019-03-03T20:32:35.665Z,36.57
2019-03-03T20:37:37.775Z,36.23
2019-03-03T20:42:39.246Z,36.28
2019-03-03T20:47:40.601Z,35.82
2019-03-03T20:52:42.132Z,35.86
2019-03-03T20:57:43.512Z,35.96
2019-03-03T21:02:44.934Z,35.92
2019-03-03T21:07:51.239Z,36.13
2019-03-03T21:12:47.812Z,35.87
2019-03-03T21:17:49.907Z,36.29
2019-03-03T21:22:51.249Z,36.19
2019-03-03T21:27:53.431Z,36.21
2019-03-03T21:32:55.518Z,36.43
2019-03-03T21:37:58.864Z,36.68
2019-03-03T21:42:58.235Z,36.55
2019-03-03T21:47:59.532Z,36.64
2019-03-03T21:53:00.973Z,36.84
2019-03-03T21:58:03.105Z,36.79
2019-03-03T22:03:04.684Z,36.98
2019-03-03T22:08:06.036Z,36.82
2019-03-03T22:13:07.436Z,37.14
2019-03-03T22:18:08.744Z,36.68
2019-03-03T22:23:10.099Z,36.86
2019-03-03T22:28:12.319Z,37.17
2019-03-03T22:33:13.681Z,36.88
2019-03-03T22:38:15.109Z,36.58
2019-03-03T22:43:16.424Z,36.57
2019-03-03T22:48:17.732Z,36.43
2019-03-03T22:53:19.036Z,36.45
2019-03-03T22:58:20.385Z,36.30
2019-03-03T23:35:02.005Z,36.70
2019-03-03T23:40:03.330Z,36.61
2019-03-03T23:45:04.721Z,36.68
2019-03-03T23:50:06.094Z,36.97
2019-03-03T23:55:07.438Z,37.13
